createdAt,value
2022-11-08T00:02:28.642Z,100921.00
2022-11-08T00:04:56.529Z,100923.94
2022-11-08T00:07:41.592Z,100925.81
2022-11-08T00:10:27.436Z,100918.53
2022-11-08T00:13:12.902Z,100925.00
2022-11-08T00:15:40.714Z,100918.78
2022-11-08T00:18:09.781Z,100917.13
2022-11-08T00:20:37.509Z,100914.66
2022-11-08T00:23:05.254Z,100915.72
2022-11-08T00:25:32.971Z,100910.31
2022-11-08T00:28:00.673Z,100913.28
2022-11-08T00:30:28.369Z,100912.44
2022-11-08T00:32:56.081Z,100910.81
2022-11-08T00:35:25.130Z,100905.41
2022-11-08T00:37:52.805Z,100903.78
2022-11-08T00:40:20.531Z,100902.94
2022-11-08T00:42:48.257Z,100900.72
2022-11-08T00:45:16.088Z,100899.09
2022-11-08T00:47:43.890Z,100899.09
2022-11-08T00:50:11.564Z,100896.63
2022-11-08T00:52:40.668Z,100893.16
2022-11-08T00:55:09.144Z,100893.38
2022-11-08T00:57:54.044Z,100895.25
2022-11-08T01:00:24.655Z,100892.00
2022-11-08T01:03:13.110Z,100878.47
2022-11-08T01:05:40.834Z,100887.66
2022-11-08T01:08:10.196Z,100892.22
2022-11-08T01:10:38.030Z,100887.88
2022-11-08T01:13:05.729Z,100892.47
2022-11-08T01:15:35.917Z,100894.34
2022-11-08T01:18:03.919Z,100889.19
2022-11-08T01:20:32.004Z,100889.19
2022-11-08T01:22:59.762Z,100882.16
2022-11-08T01:25:28.831Z,100875.09
2022-11-08T01:27:56.551Z,100875.94
2022-11-08T01:30:24.351Z,100874.28
2022-11-08T01:32:52.065Z,100877.81
2022-11-08T01:35:19.737Z,100869.94
2022-11-08T01:37:47.475Z,100870.78
2022-11-08T01:40:15.302Z,100869.94
2022-11-08T01:42:44.339Z,100862.91
2022-11-08T01:45:12.761Z,100860.19
2022-11-08T01:47:40.469Z,100853.16
2022-11-08T01:50:12.090Z,100850.47
2022-11-08T01:52:43.015Z,100843.41
2022-11-08T01:55:16.945Z,100844.25
2022-11-08T01:57:50.251Z,100836.63
2022-11-08T02:00:19.877Z,100823.28
2022-11-08T02:02:55.007Z,100826.41
2022-11-08T02:05:26.305Z,100829.34
2022-11-08T02:07:58.595Z,100824.75
2022-11-08T02:10:30.544Z,100815.03
2022-11-08T02:13:04.790Z,100810.69
2022-11-08T02:15:33.197Z,100815.25
2022-11-08T02:18:01.170Z,100805.28
2022-11-08T02:20:29.152Z,100809.84
2022-11-08T02:23:03.621Z,100809.03
2022-11-08T02:25:32.726Z,100799.31
2022-11-08T02:28:00.439Z,100797.91
2022-11-08T02:30:33.535Z,100791.69
2022-11-08T02:33:01.197Z,100773.59
2022-11-08T02:35:28.929Z,100775.41
2022-11-08T02:37:56.805Z,100773.03
2022-11-08T02:40:24.482Z,100769.50
2022-11-08T02:42:53.561Z,100763.53
2022-11-08T02:45:21.203Z,100775.97
2022-11-08T02:47:48.924Z,100760.81
2022-11-08T02:50:16.620Z,100751.34
2022-11-08T02:52:44.333Z,100753.78
2022-11-08T02:55:12.033Z,100749.44
2022-11-08T02:57:39.745Z,100743.22
2022-11-08T03:00:10.291Z,100737.25
2022-11-08T03:02:38.106Z,100734.56
2022-11-08T03:05:06.515Z,100730.22
2022-11-08T03:07:34.275Z,100724.00
2022-11-08T03:10:01.945Z,100718.84
2022-11-08T03:12:29.578Z,100712.88
2022-11-08T03:14:57.241Z,100706.66
2022-11-08T03:17:26.258Z,100703.94
2022-11-08T03:19:54.267Z,100705.84
2022-11-08T03:22:21.914Z,100705.00
2022-11-08T03:24:49.647Z,100703.13
2022-11-08T03:27:19.117Z,100707.72
2022-11-08T03:29:46.885Z,100702.31
2022-11-08T03:32:15.961Z,100703.38
2022-11-08T03:34:45.049Z,100709.03
2022-11-08T03:37:12.700Z,100693.88
2022-11-08T03:39:40.475Z,100693.63
2022-11-08T03:42:08.188Z,100685.53
2022-11-08T03:44:36.105Z,100673.34
2022-11-08T03:47:03.809Z,100669.84
2022-11-08T03:49:31.468Z,100666.06
2022-11-08T03:52:00.449Z,100665.25
2022-11-08T03:54:28.224Z,100653.63
2022-11-08T03:56:55.882Z,100656.59
2022-11-08T03:59:23.543Z,100656.81
2022-11-08T04:01:51.348Z,100650.38
2022-11-08T04:04:19.123Z,100648.72
2022-11-08T04:06:46.873Z,100642.50
2022-11-08T04:09:20.402Z,100637.13
2022-11-08T04:12:06.425Z,100640.88
2022-11-08T04:14:51.961Z,100633.84
2022-11-08T04:17:19.681Z,100623.28
2022-11-08T04:20:05.039Z,100611.69
2022-11-08T04:22:32.717Z,100607.34
2022-11-08T04:25:01.733Z,100602.19
2022-11-08T04:27:29.424Z,100604.88
2022-11-08T04:29:57.082Z,100606.78
2022-11-08T04:32:24.708Z,100596.22
2022-11-08T04:34:52.342Z,100600.81
2022-11-08T04:37:19.988Z,100593.75
2022-11-08T04:39:47.640Z,100594.81
2022-11-08T04:42:16.636Z,100592.38
2022-11-08T04:44:44.609Z,100598.03
2022-11-08T04:47:12.253Z,100586.41
2022-11-08T04:49:39.910Z,100574.78
2022-11-08T04:52:08.409Z,100573.41
2022-11-08T04:54:36.014Z,100563.66
2022-11-08T04:57:03.732Z,100545.03
2022-11-08T04:59:32.705Z,100547.72
2022-11-08T05:02:00.514Z,100551.25
2022-11-08T05:04:28.264Z,100548.78
2022-11-08T05:06:55.944Z,100536.34
2022-11-08T05:09:23.593Z,100541.72
2022-11-08T05:11:51.316Z,100531.19
2022-11-08T05:14:19.220Z,100537.41
2022-11-08T05:16:48.325Z,100539.28
2022-11-08T05:19:35.979Z,100544.66
2022-11-08T05:22:21.368Z,100543.84
2022-11-08T05:24:49.023Z,100545.75
2022-11-08T05:27:16.693Z,100538.72
2022-11-08T05:29:44.340Z,100530.59
2022-11-08T05:32:13.329Z,100522.50
2022-11-08T05:34:40.987Z,100526.28
2022-11-08T05:37:08.688Z,100521.38
2022-11-08T05:39:36.359Z,100524.66
2022-11-08T05:42:05.328Z,100521.13
2022-11-08T05:44:32.983Z,100528.16
2022-11-08T05:47:00.645Z,100524.06
2022-11-08T05:49:29.686Z,100524.06
2022-11-08T05:51:57.663Z,100523.25
2022-11-08T05:54:25.309Z,100528.66
2022-11-08T05:56:52.963Z,100528.66
2022-11-08T05:59:20.827Z,100523.25
2022-11-08T06:01:48.555Z,100517.84
2022-11-08T06:04:16.265Z,100519.75
2022-11-08T06:06:45.258Z,100508.94
2022-11-08T06:09:12.941Z,100515.41
2022-11-08T06:11:40.618Z,100515.66
2022-11-08T06:14:08.319Z,100523.16
2022-11-08T06:16:36.078Z,100519.41
2022-11-08T06:19:03.816Z,100524.31
2022-11-08T06:21:31.504Z,100513.59
2022-11-08T06:24:00.539Z,100511.97
2022-11-08T06:26:28.197Z,100515.72
2022-11-08T06:28:56.150Z,100514.91
2022-11-08T06:31:24.054Z,100517.03
2022-11-08T06:33:51.734Z,100511.91
2022-11-08T06:36:21.146Z,100526.19
2022-11-08T06:38:48.823Z,100520.81
2022-11-08T06:41:20.517Z,100508.38
2022-11-08T06:43:48.776Z,100521.88
2022-11-08T06:46:16.702Z,100520.22
2022-11-08T06:48:44.455Z,100512.38
2022-11-08T06:51:12.118Z,100511.31
2022-11-08T06:53:39.851Z,100516.16
2022-11-08T06:56:08.035Z,100511.81
2022-11-08T06:58:37.306Z,100526.59
2022-11-08T07:01:05.433Z,100530.13
2022-11-08T07:03:33.671Z,100524.97
2022-11-08T07:06:02.784Z,100523.59
2022-11-08T07:08:30.580Z,100526.03
2022-11-08T07:10:58.348Z,100530.38
2022-11-08T07:13:26.167Z,100536.34
2022-11-08T07:15:58.461Z,100525.53
2022-11-08T07:18:26.624Z,100533.88
2022-11-08T07:20:54.489Z,100528.50
2022-11-08T07:23:22.548Z,100527.44
2022-11-08T07:25:50.502Z,100520.16
2022-11-08T07:28:20.130Z,100524.47
2022-11-08T07:30:48.946Z,100530.13
2022-11-08T07:33:18.514Z,100526.38
2022-11-08T07:35:48.098Z,100525.53
2022-11-08T07:38:15.994Z,100522.03
2022-11-08T07:40:44.052Z,100525.31
2022-11-08T07:43:13.116Z,100526.13
2022-11-08T07:45:41.416Z,100531.75
2022-11-08T07:48:12.281Z,100526.38
2022-11-08T07:50:43.092Z,100515.91
2022-11-08T07:53:11.684Z,100517.53
2022-11-08T07:55:40.493Z,100514.84
2022-11-08T07:58:10.563Z,100515.16
2022-11-08T08:00:40.934Z,100505.94
2022-11-08T08:03:11.542Z,100503.56
2022-11-08T08:05:42.846Z,100514.59
2022-11-08T08:08:12.302Z,100508.94
2022-11-08T08:10:40.601Z,100515.97
2022-11-08T08:13:08.635Z,100505.63
2022-11-08T08:15:36.489Z,100523.91
2022-11-08T08:18:05.803Z,100515.25
2022-11-08T08:20:34.524Z,100518.75
2022-11-08T08:23:03.577Z,100520.66
2022-11-08T08:25:31.949Z,100516.09
2022-11-08T08:28:01.851Z,100527.00
2022-11-08T08:30:31.771Z,100523.88
2022-11-08T08:33:29.986Z,100535.59
2022-11-08T08:35:54.055Z,100533.38
2022-11-08T08:38:23.140Z,100546.72
2022-11-08T08:40:51.620Z,100554.91
2022-11-08T08:43:19.684Z,100536.09
2022-11-08T08:45:48.593Z,100533.31
2022-11-08T08:48:16.535Z,100540.19
2022-11-08T08:50:44.196Z,100526.59
2022-11-08T08:53:12.069Z,100524.28
2022-11-08T08:55:41.794Z,100510.47
2022-11-08T08:58:10.874Z,100527.41
2022-11-08T09:03:26.248Z,100508.53
2022-11-08T09:05:53.955Z,100497.84
2022-11-08T09:08:21.617Z,100498.94
2022-11-08T09:10:55.285Z,100493.53
2022-11-08T09:13:23.607Z,100499.50
2022-11-08T09:15:51.877Z,100517.50
2022-11-08T09:18:20.182Z,100517.09
2022-11-08T09:20:47.942Z,100519.38
2022-11-08T09:23:18.155Z,100510.56
2022-11-08T09:25:46.157Z,100500.97
2022-11-08T09:28:15.290Z,100499.38
2022-11-08T09:30:42.986Z,100501.75
2022-11-08T09:33:10.805Z,100494.97
2022-11-08T09:35:38.575Z,100488.97
2022-11-08T09:38:07.457Z,100491.00
2022-11-08T09:40:40.035Z,100491.16
2022-11-08T09:43:24.761Z,100498.56
2022-11-08T09:45:56.045Z,100488.41
2022-11-08T09:48:29.126Z,100496.91
2022-11-08T09:51:00.254Z,100493.91
2022-11-08T09:53:36.138Z,100506.59
2022-11-08T09:56:08.199Z,100510.38
2022-11-08T09:58:43.755Z,100515.47
2022-11-08T10:01:12.964Z,100526.84
2022-11-08T10:03:44.436Z,100522.19
2022-11-08T10:06:30.174Z,100519.72
2022-11-08T10:09:08.497Z,100516.97
2022-11-08T10:11:47.047Z,100512.56
2022-11-08T10:14:33.969Z,100510.50
2022-11-08T10:17:25.013Z,100517.72
2022-11-08T10:20:16.065Z,100508.25
2022-11-08T10:22:53.144Z,100519.88
2022-11-08T10:25:31.571Z,100522.56
2022-11-08T10:28:03.150Z,100522.31
2022-11-08T10:30:36.351Z,100519.16
2022-11-08T10:33:17.486Z,100528.66
2022-11-08T10:35:49.838Z,100531.00
2022-11-08T10:38:21.092Z,100531.75
2022-11-08T10:40:57.720Z,100527.72
2022-11-08T10:43:34.627Z,100530.09
2022-11-08T10:46:04.161Z,100537.97
2022-11-08T10:48:35.349Z,100534.69
2022-11-08T10:51:03.009Z,100533.31
2022-11-08T10:53:32.591Z,100536.63
2022-11-08T10:56:01.839Z,100542.34
2022-11-08T10:58:32.455Z,100542.88
2022-11-08T11:01:04.619Z,100539.34
2022-11-08T11:03:32.501Z,100537.22
2022-11-08T11:06:03.115Z,100535.81
2022-11-08T11:08:31.129Z,100522.56
2022-11-08T11:11:23.497Z,100510.03
2022-11-08T11:14:06.731Z,100532.31
2022-11-08T11:16:36.603Z,100526.91
2022-11-08T11:19:06.940Z,100494.59
2022-11-08T11:21:39.136Z,100498.78
2022-11-08T11:24:10.193Z,100498.69
2022-11-08T11:26:44.850Z,100497.03
2022-11-08T11:29:21.512Z,100487.88
2022-11-08T11:31:52.118Z,100479.50
2022-11-08T11:34:42.342Z,100475.91
2022-11-08T11:37:19.968Z,100466.97
2022-11-08T11:39:56.152Z,100456.00
2022-11-08T11:42:45.093Z,100456.81
2022-11-08T11:45:19.842Z,100471.34
2022-11-08T11:47:53.431Z,100465.72
2022-11-08T11:50:29.783Z,100465.16
2022-11-08T11:52:58.398Z,100468.47
2022-11-08T11:55:34.103Z,100461.91
2022-11-08T11:58:11.262Z,100470.25
2022-11-08T12:00:48.196Z,100472.88
2022-11-08T12:03:44.723Z,100470.56
2022-11-08T12:06:33.483Z,100458.00
2022-11-08T12:09:17.603Z,100460.63
2022-11-08T12:11:59.422Z,100450.03
2022-11-08T12:14:42.472Z,100444.84
2022-11-08T12:17:26.500Z,100458.88
2022-11-08T12:20:10.513Z,100461.28
2022-11-08T12:22:49.930Z,100448.00
2022-11-08T12:25:25.267Z,100445.56
2022-11-08T12:27:56.740Z,100463.13
2022-11-08T12:30:35.121Z,100462.53
2022-11-08T12:33:21.885Z,100458.44
2022-11-08T12:36:03.392Z,100461.66
2022-11-08T12:38:37.422Z,100451.09
2022-11-08T12:41:14.509Z,100441.38
2022-11-08T12:44:10.678Z,100441.38
2022-11-08T12:46:52.328Z,100434.06
2022-11-08T12:49:33.538Z,100434.19
2022-11-08T12:52:14.877Z,100425.53
2022-11-08T12:54:46.447Z,100424.19
2022-11-08T12:57:17.435Z,100427.50
2022-11-08T12:59:48.964Z,100433.69
2022-11-08T13:02:21.825Z,100431.22
2022-11-08T13:04:58.809Z,100431.00
2022-11-08T13:07:37.889Z,100437.19
2022-11-08T13:10:15.270Z,100423.94
2022-11-08T13:12:56.085Z,100421.78
2022-11-08T13:15:26.323Z,100423.41
2022-11-08T13:18:23.556Z,100413.41
2022-11-08T13:20:51.679Z,100424.22
2022-11-08T13:23:27.585Z,100418.81
2022-11-08T13:25:55.846Z,100416.41
2022-11-08T13:28:38.313Z,100404.56
2022-11-08T13:31:42.840Z,100418.69
2022-11-08T13:34:36.192Z,100425.25
2022-11-08T13:37:22.586Z,100440.06
2022-11-08T13:40:08.954Z,100429.84
2022-11-08T13:42:57.296Z,100430.41
2022-11-08T13:45:33.181Z,100426.03
2022-11-08T13:48:03.144Z,100421.69
2022-11-08T13:50:55.488Z,100425.47
2022-11-08T13:53:54.713Z,100432.50
2022-11-08T13:56:49.332Z,100429.53
2022-11-08T14:00:00.243Z,100434.47
2022-11-08T14:02:41.543Z,100432.16
2022-11-08T14:05:31.113Z,100434.28
2022-11-08T14:08:19.716Z,100420.03
2022-11-08T14:11:39.803Z,100420.53
2022-11-08T14:14:42.761Z,100418.56
2022-11-08T14:17:30.961Z,100414.50
2022-11-08T14:20:15.522Z,100404.78
2022-11-08T14:22:49.690Z,100414.78
2022-11-08T14:25:30.980Z,100408.31
2022-11-08T14:27:59.300Z,100398.53
2022-11-08T14:30:28.590Z,100406.50
2022-11-08T14:33:17.331Z,100412.47
2022-11-08T14:35:54.241Z,100410.00
2022-11-08T14:38:21.909Z,100425.31
2022-11-08T14:40:51.534Z,100413.66
2022-11-08T14:43:20.359Z,100420.16
2022-11-08T14:45:50.429Z,100409.34
2022-11-08T14:48:23.434Z,100414.81
2022-11-08T14:50:58.688Z,100417.56
2022-11-08T14:53:28.948Z,100417.63
2022-11-08T14:56:02.424Z,100419.88
2022-11-08T14:58:30.889Z,100413.38
2022-11-08T15:01:02.532Z,100422.88
2022-11-08T15:03:32.857Z,100409.06
2022-11-08T15:06:02.654Z,100425.88
2022-11-08T15:08:33.476Z,100418.00
2022-11-08T15:11:04.424Z,100414.75
2022-11-08T15:13:39.686Z,100408.50
2022-11-08T15:16:10.302Z,100414.72
2022-11-08T15:18:40.292Z,100405.50
2022-11-08T15:21:22.058Z,100400.31
2022-11-08T15:23:53.204Z,100405.72
2022-11-08T15:26:24.491Z,100400.59
2022-11-08T15:29:00.058Z,100393.81
2022-11-08T15:31:32.614Z,100391.34
2022-11-08T15:34:00.401Z,100378.88
2022-11-08T15:36:33.914Z,100381.88
2022-11-08T15:39:02.465Z,100377.25
2022-11-08T15:41:33.593Z,100382.91
2022-11-08T15:44:15.259Z,100383.44
2022-11-08T15:46:45.009Z,100379.06
2022-11-08T15:49:21.163Z,100383.63
2022-11-08T15:51:49.671Z,100373.59
2022-11-08T15:54:18.083Z,100377.91
2022-11-08T15:56:47.111Z,100374.09
2022-11-08T15:59:21.065Z,100370.28
2022-11-08T16:01:59.646Z,100371.91
2022-11-08T16:04:28.737Z,100376.75
2022-11-08T16:06:56.937Z,100369.72
2022-11-08T16:09:24.673Z,100369.97
2022-11-08T16:11:52.633Z,100363.22
2022-11-08T16:14:23.644Z,100363.47
2022-11-08T16:16:51.773Z,100363.47
2022-11-08T16:19:23.446Z,100367.00
2022-11-08T16:21:51.917Z,100363.22
2022-11-08T16:24:20.162Z,100376.72
2022-11-08T16:26:49.395Z,100374.00
2022-11-08T16:29:21.158Z,100371.03
2022-11-08T16:31:49.316Z,100369.66
2022-11-08T16:34:16.982Z,100371.81
2022-11-08T16:36:47.158Z,100384.56
2022-11-08T16:39:17.551Z,100379.69
2022-11-08T16:41:45.228Z,100387.50
2022-11-08T16:44:13.138Z,100390.22
2022-11-08T16:46:41.139Z,100380.72
2022-11-08T16:49:20.989Z,100389.91
2022-11-08T16:51:50.282Z,100386.66
2022-11-08T16:54:20.627Z,100395.59
2022-11-08T16:56:48.362Z,100393.16
2022-11-08T16:59:16.016Z,100392.34
2022-11-08T17:01:44.568Z,100388.81
2022-11-08T17:04:12.340Z,100398.00
2022-11-08T17:06:40.169Z,100384.47
2022-11-08T17:09:09.319Z,100383.41
2022-11-08T17:11:38.522Z,100391.00
2022-11-08T17:14:06.518Z,100389.41
2022-11-08T17:16:34.361Z,100389.41
2022-11-08T17:19:03.601Z,100397.50
2022-11-08T17:21:44.877Z,100390.72
2022-11-08T17:24:21.005Z,100391.53
2022-11-08T17:26:49.551Z,100379.94
2022-11-08T17:29:17.260Z,100381.84
2022-11-08T17:31:44.936Z,100369.94
2022-11-08T17:34:12.587Z,100376.97
2022-11-08T17:36:40.405Z,100385.09
2022-11-08T17:39:08.556Z,100369.94
2022-11-08T17:41:37.565Z,100378.59
2022-11-08T17:44:05.433Z,100378.59
2022-11-08T17:46:33.150Z,100385.09
2022-11-08T17:49:00.833Z,100381.56
2022-11-08T17:51:28.509Z,100386.44
2022-11-08T17:53:56.163Z,100380.19
2022-11-08T17:56:23.836Z,100380.19
2022-11-08T17:58:52.838Z,100385.63
2022-11-08T18:01:20.594Z,100375.38
2022-11-08T18:03:48.373Z,100374.81
2022-11-08T18:06:16.532Z,100374.81
2022-11-08T18:08:44.325Z,100378.88
2022-11-08T18:11:11.968Z,100381.06
2022-11-08T18:13:39.765Z,100373.78
2022-11-08T18:16:11.034Z,100380.00
2022-11-08T18:18:39.316Z,100372.44
2022-11-08T18:21:07.805Z,100379.47
2022-11-08T18:23:35.621Z,100385.97
2022-11-08T18:26:03.359Z,100393.00
2022-11-08T18:28:31.279Z,100394.94
2022-11-08T18:31:05.818Z,100399.00
2022-11-08T18:33:36.139Z,100391.41
2022-11-08T18:36:05.377Z,100397.88
2022-11-08T18:38:35.451Z,100395.72
2022-11-08T18:41:03.340Z,100395.72
2022-11-08T18:43:30.982Z,100390.59
2022-11-08T18:46:03.241Z,100399.53
2022-11-08T18:48:32.301Z,100391.94
2022-11-08T18:51:01.346Z,100392.53
2022-11-08T18:53:29.186Z,100392.31
2022-11-08T18:55:57.158Z,100399.97
2022-11-08T18:58:25.279Z,100378.59
2022-11-08T19:00:54.371Z,100389.19
2022-11-08T19:03:22.803Z,100393.84
2022-11-08T19:05:51.065Z,100394.38
2022-11-08T19:08:21.895Z,100393.56
2022-11-08T19:10:51.228Z,100396.81
2022-11-08T19:13:19.627Z,100390.00
2022-11-08T19:15:57.296Z,100388.34
2022-11-08T19:18:25.302Z,100393.78
2022-11-08T19:20:57.319Z,100391.56
2022-11-08T19:23:27.285Z,100387.50
2022-11-08T19:25:56.896Z,100389.63
2022-11-08T19:28:26.256Z,100390.72
2022-11-08T19:30:57.165Z,100387.72
2022-11-08T19:33:25.975Z,100391.78
2022-11-08T19:35:54.048Z,100400.16
2022-11-08T19:38:22.179Z,100390.41
2022-11-08T19:40:51.411Z,100389.56
2022-11-08T19:43:19.544Z,100399.56
2022-11-08T19:45:54.299Z,100399.56
2022-11-08T19:48:22.357Z,100393.59
2022-11-08T19:50:50.690Z,100401.72
2022-11-08T19:53:18.380Z,100391.44
2022-11-08T19:55:46.077Z,100396.56
2022-11-08T19:58:15.530Z,100401.97
2022-11-08T20:00:43.429Z,100397.88
2022-11-08T20:03:11.107Z,100396.53
2022-11-08T20:05:38.774Z,100402.75
2022-11-08T20:08:07.384Z,100402.19
2022-11-08T20:10:35.111Z,100400.84
2022-11-08T20:13:02.946Z,100405.13
2022-11-08T20:15:32.016Z,100402.16
2022-11-08T20:17:59.729Z,100402.44
2022-11-08T20:20:29.618Z,100404.88
2022-11-08T20:22:57.662Z,100400.53
2022-11-08T20:25:25.331Z,100407.28
2022-11-08T20:27:53.024Z,100406.22
2022-11-08T20:30:20.766Z,100409.75
2022-11-08T20:32:49.785Z,100404.59
2022-11-08T20:35:22.901Z,100404.59
2022-11-08T20:37:50.986Z,100406.22
2022-11-08T20:40:18.638Z,100411.63
2022-11-08T20:42:46.310Z,100410.56
2022-11-08T20:45:15.307Z,100406.00
2022-11-08T20:47:43.158Z,100405.44
2022-11-08T20:50:12.422Z,100406.47
2022-11-08T20:52:40.149Z,100401.31
2022-11-08T20:55:08.215Z,100413.22
2022-11-08T20:57:35.866Z,100409.72
2022-11-08T21:00:13.243Z,100408.88
2022-11-08T21:02:41.463Z,100424.56
2022-11-08T21:05:09.761Z,100422.94
2022-11-08T21:10:42.435Z,100432.41
2022-11-08T21:13:11.208Z,100438.88
2022-11-08T21:15:39.046Z,100448.34
2022-11-08T21:18:06.722Z,100449.16
2022-11-08T21:20:34.442Z,100440.69
2022-11-08T21:23:03.514Z,100459.16
2022-11-08T21:25:31.808Z,100459.41
2022-11-08T21:28:00.063Z,100465.91
2022-11-08T21:30:28.216Z,100469.69
2022-11-08T21:32:55.933Z,100458.88
2022-11-08T21:35:23.663Z,100459.69
2022-11-08T21:37:51.435Z,100458.03
2022-11-08T21:40:20.618Z,100452.91
2022-11-08T21:42:49.072Z,100459.13
2022-11-08T21:45:17.006Z,100461.28
2022-11-08T21:47:49.247Z,100466.94
2022-11-08T21:50:17.095Z,100466.13
2022-11-08T21:52:44.789Z,100470.16
2022-11-08T21:55:12.741Z,100469.34
2022-11-08T21:57:42.295Z,100470.41
2022-11-08T22:00:11.901Z,100476.66
2022-11-08T22:02:40.889Z,100471.50
2022-11-08T22:05:09.641Z,100467.16
2022-11-08T22:07:37.999Z,100461.75
2022-11-08T22:10:06.645Z,100468.22
2022-11-08T22:12:34.918Z,100459.25
2022-11-08T22:15:04.097Z,100467.69
2022-11-08T22:17:31.825Z,100472.28
2022-11-08T22:19:59.514Z,100462.53
2022-11-08T22:22:27.366Z,100463.59
2022-11-08T22:24:55.617Z,100464.66
2022-11-08T22:27:23.403Z,100470.09
2022-11-08T22:29:51.141Z,100464.66
2022-11-08T22:32:20.174Z,100465.75
2022-11-08T22:34:47.842Z,100462.22
2022-11-08T22:37:15.556Z,100458.69
2022-11-08T22:39:43.262Z,100462.47
2022-11-08T22:42:10.941Z,100461.66
2022-11-08T22:44:38.625Z,100461.91
2022-11-08T22:47:06.339Z,100456.50
2022-11-08T22:49:35.349Z,100463.00
2022-11-08T22:52:03.046Z,100468.97
2022-11-08T22:54:31.730Z,100464.06
2022-11-08T22:56:59.417Z,100456.78
2022-11-08T22:59:27.123Z,100459.47
2022-11-08T23:01:54.800Z,100456.78
2022-11-08T23:04:22.448Z,100461.38
2022-11-08T23:06:51.590Z,100463.00
2022-11-08T23:09:19.314Z,100464.06
2022-11-08T23:12:04.754Z,100459.72
2022-11-08T23:14:50.240Z,100461.63
2022-11-08T23:17:17.945Z,100463.50
2022-11-08T23:20:03.386Z,100467.03
2022-11-08T23:22:50.784Z,100458.38
2022-11-08T23:25:18.482Z,100465.66
2022-11-08T23:28:03.938Z,100457.53
2022-11-08T23:30:49.273Z,100453.47
2022-11-08T23:33:17.180Z,100451.31
2022-11-08T23:35:59.013Z,100448.88
2022-11-08T23:38:28.085Z,100456.16
2022-11-08T23:41:17.086Z,100452.91
2022-11-08T23:44:02.600Z,100453.97
2022-11-08T23:46:30.291Z,100454.78
2022-11-08T23:48:57.968Z,100458.81
2022-11-08T23:51:25.704Z,100468.00
2022-11-08T23:53:54.818Z,100460.16
2022-11-08T23:56:23.408Z,100463.69
2022-11-08T23:58:51.081Z,100459.34
